createdAt,value
2018-02-17T00:01:20.527Z,95.00
2018-02-17T00:03:46.691Z,94.90
2018-02-17T00:06:12.921Z,93.00
2018-02-17T00:08:40.183Z,94.20
2018-02-17T00:11:06.404Z,94.20
2018-02-17T00:13:32.625Z,94.40
2018-02-17T00:15:58.982Z,94.80
2018-02-17T00:18:25.364Z,94.70
2018-02-17T00:20:53.572Z,95.90
2018-02-17T00:23:19.905Z,95.70
2018-02-17T00:25:46.281Z,95.90
2018-02-17T00:28:13.553Z,94.70
2018-02-17T00:30:39.836Z,95.80
2018-02-17T00:33:06.039Z,95.10
2018-02-17T00:35:32.267Z,94.20
2018-02-17T00:37:58.531Z,94.60
2018-02-17T00:40:27.003Z,94.00
2018-02-17T00:42:53.476Z,94.10
2018-02-17T00:45:19.622Z,93.50
2018-02-17T00:47:45.838Z,93.30
2018-02-17T00:50:13.831Z,94.80
2018-02-17T00:52:39.982Z,94.00
2018-02-17T00:55:06.138Z,94.60
2018-02-17T00:57:32.267Z,94.30
2018-02-17T00:59:58.594Z,94.10
2018-02-17T01:02:24.823Z,93.70
2018-02-17T01:04:51.061Z,93.70
2018-02-17T01:07:17.206Z,93.80
2018-02-17T01:09:43.382Z,93.60
2018-02-17T01:12:09.619Z,94.00
2018-02-17T01:14:35.870Z,94.40
2018-02-17T01:17:02.096Z,94.80
2018-02-17T01:19:28.278Z,93.90
2018-02-17T01:21:55.330Z,94.70
2018-02-17T01:24:21.498Z,94.60
2018-02-17T01:26:47.641Z,94.20
2018-02-17T01:29:14.021Z,94.10
2018-02-17T01:31:40.955Z,95.30
2018-02-17T01:34:07.366Z,95.30
2018-02-17T01:36:33.636Z,95.00
2018-02-17T01:38:59.953Z,95.20
2018-02-17T01:41:43.555Z,95.60
2018-02-17T01:44:09.797Z,95.20
2018-02-17T01:46:35.999Z,95.60
2018-02-17T01:49:02.231Z,95.80
2018-02-17T01:51:28.470Z,96.20
2018-02-17T01:53:54.709Z,96.50
2018-02-17T01:56:20.925Z,95.60
2018-02-17T01:58:47.272Z,95.80
2018-02-17T02:01:15.655Z,95.50
2018-02-17T02:03:42.402Z,95.90
2018-02-17T02:06:09.070Z,95.40
2018-02-17T02:08:36.624Z,96.10
2018-02-17T02:11:03.923Z,95.70
2018-02-17T02:13:30.578Z,95.90
2018-02-17T02:15:57.224Z,95.80
2018-02-17T02:18:23.514Z,95.40
2018-02-17T02:20:49.642Z,95.80
2018-02-17T02:23:16.604Z,96.20
2018-02-17T02:25:43.890Z,95.50
2018-02-17T02:28:10.230Z,96.10
2018-02-17T02:30:37.343Z,96.00
2018-02-17T02:33:03.783Z,95.90
2018-02-17T02:35:30.963Z,96.20
2018-02-17T02:37:57.376Z,96.00
2018-02-17T02:40:23.771Z,95.50
2018-02-17T02:42:50.034Z,95.90
2018-02-17T02:45:16.286Z,95.80
2018-02-17T02:47:43.278Z,96.50
2018-02-17T02:50:09.720Z,96.50
2018-02-17T02:52:36.010Z,97.00
2018-02-17T02:55:02.271Z,97.00
2018-02-17T02:57:28.661Z,97.00
2018-02-17T02:59:55.021Z,96.90
2018-02-17T03:02:21.295Z,97.40
2018-02-17T03:04:47.416Z,97.10
2018-02-17T03:07:13.834Z,97.00
2018-02-17T03:09:40.348Z,96.00
2018-02-17T03:12:07.335Z,95.80
2018-02-17T03:14:33.586Z,96.40
2018-02-17T03:17:00.006Z,96.40
2018-02-17T03:19:26.247Z,96.60
2018-02-17T03:21:52.441Z,97.10
2018-02-17T03:24:18.615Z,96.60
2018-02-17T03:26:44.806Z,96.70
2018-02-17T03:29:11.067Z,97.00
2018-02-17T03:31:38.208Z,97.00
2018-02-17T03:34:04.543Z,96.90
2018-02-17T03:36:30.710Z,96.40
2018-02-17T03:38:58.015Z,97.00
2018-02-17T03:41:24.346Z,96.70
2018-02-17T03:43:50.622Z,96.50
2018-02-17T03:46:17.053Z,96.20
2018-02-17T03:48:43.223Z,97.10
2018-02-17T03:51:09.411Z,97.00
2018-02-17T03:53:35.656Z,97.00
2018-02-17T03:56:01.903Z,97.30
2018-02-17T03:58:28.134Z,97.10
2018-02-17T04:00:54.406Z,96.70
2018-02-17T04:03:20.606Z,97.20
2018-02-17T04:05:46.788Z,97.10
2018-02-17T04:08:12.978Z,96.80
2018-02-17T04:10:39.325Z,96.60
2018-02-17T04:13:06.275Z,96.80
2018-02-17T04:15:32.459Z,96.90
2018-02-17T04:17:58.687Z,96.60
2018-02-17T04:20:25.055Z,96.60
2018-02-17T04:22:51.237Z,96.90
2018-02-17T04:25:17.439Z,97.00
2018-02-17T04:27:43.656Z,96.90
2018-02-17T04:30:09.798Z,97.10
2018-02-17T04:32:35.925Z,97.30
2018-02-17T04:35:02.076Z,97.50
2018-02-17T04:37:28.272Z,97.40
2018-02-17T04:40:00.574Z,97.10
2018-02-17T04:45:28.223Z,97.00
2018-02-17T04:48:00.943Z,96.90
2018-02-17T04:50:48.099Z,96.40
2018-02-17T04:53:31.453Z,96.40
2018-02-17T04:59:15.724Z,96.90
2018-02-17T05:04:47.163Z,97.20
2018-02-17T05:07:17.849Z,96.80
2018-02-17T05:09:44.314Z,97.40
2018-02-17T05:12:10.827Z,97.00
2018-02-17T05:14:44.137Z,97.80
2018-02-17T05:17:15.234Z,97.70
2018-02-17T05:20:00.643Z,97.70
2018-02-17T05:22:33.136Z,97.70
2018-02-17T05:25:05.799Z,97.40
2018-02-17T05:27:32.175Z,97.60
2018-02-17T05:30:00.476Z,97.50
2018-02-17T05:32:30.718Z,97.90
2018-02-17T05:35:00.081Z,97.60
2018-02-17T05:37:26.708Z,97.40
2018-02-17T05:43:00.654Z,97.70
2018-02-17T05:45:30.286Z,97.80
2018-02-17T05:48:00.226Z,97.50
2018-02-17T05:50:26.737Z,97.80
2018-02-17T05:52:53.166Z,97.70
2018-02-17T05:55:19.596Z,97.90
2018-02-17T05:57:46.078Z,97.80
2018-02-17T06:00:12.409Z,97.80
2018-02-17T06:02:38.747Z,97.80
2018-02-17T06:05:05.180Z,97.80
2018-02-17T06:07:31.569Z,97.50
2018-02-17T06:09:58.190Z,97.60
2018-02-17T06:12:24.577Z,97.50
2018-02-17T06:14:50.889Z,97.80
2018-02-17T06:17:18.007Z,97.30
2018-02-17T06:19:44.443Z,97.20
2018-02-17T06:22:10.832Z,97.70
2018-02-17T06:24:37.202Z,97.20
2018-02-17T06:27:03.679Z,97.30
2018-02-17T06:29:30.112Z,97.40
2018-02-17T06:31:56.571Z,97.10
2018-02-17T06:34:22.953Z,97.00
2018-02-17T06:36:49.324Z,97.50
2018-02-17T06:39:15.775Z,97.50
2018-02-17T06:41:42.102Z,97.60
2018-02-17T06:44:08.516Z,97.60
2018-02-17T06:46:34.916Z,97.80
2018-02-17T06:49:01.323Z,97.40
2018-02-17T06:51:27.675Z,97.90
2018-02-17T06:53:54.095Z,97.80
2018-02-17T06:56:20.594Z,97.90
2018-02-17T06:58:47.003Z,97.90
2018-02-17T07:01:14.451Z,97.90
2018-02-17T07:03:41.598Z,97.90
2018-02-17T07:06:08.098Z,97.90
2018-02-17T07:08:34.782Z,97.60
2018-02-17T07:11:01.399Z,97.80
2018-02-17T07:13:27.677Z,97.30
2018-02-17T07:15:54.020Z,97.80
2018-02-17T07:18:20.418Z,97.30
2018-02-17T07:20:48.250Z,97.30
2018-02-17T07:23:14.640Z,97.30
2018-02-17T07:25:40.971Z,97.40
2018-02-17T07:28:07.543Z,97.40
2018-02-17T07:30:33.966Z,97.40
2018-02-17T07:33:00.365Z,97.10
2018-02-17T07:35:26.655Z,97.20
2018-02-17T07:37:53.066Z,97.40
2018-02-17T07:40:19.452Z,97.20
2018-02-17T07:42:45.951Z,96.80
2018-02-17T07:45:13.104Z,97.20
2018-02-17T07:47:39.538Z,97.20
2018-02-17T07:50:05.837Z,97.20
2018-02-17T07:52:32.222Z,96.90
2018-02-17T07:54:58.640Z,97.10
2018-02-17T07:57:25.914Z,97.30
2018-02-17T07:59:54.409Z,97.00
2018-02-17T08:02:20.820Z,96.90
2018-02-17T08:04:47.132Z,96.70
2018-02-17T08:07:13.460Z,96.80
2018-02-17T08:09:41.077Z,96.70
2018-02-17T08:12:07.482Z,96.70
2018-02-17T08:14:33.814Z,96.70
2018-02-17T08:17:00.366Z,96.50
2018-02-17T08:19:26.675Z,96.50
2018-02-17T08:21:53.807Z,96.60
2018-02-17T08:24:20.185Z,96.50
2018-02-17T08:26:46.559Z,96.40
2018-02-17T08:29:12.897Z,96.50
2018-02-17T08:31:39.327Z,96.40
2018-02-17T08:34:05.715Z,96.10
2018-02-17T08:36:32.097Z,96.40
2018-02-17T08:38:59.202Z,96.50
2018-02-17T08:41:25.509Z,96.40
2018-02-17T08:43:52.056Z,96.40
2018-02-17T08:46:18.571Z,96.30
2018-02-17T08:48:47.238Z,96.50
2018-02-17T08:51:13.973Z,96.40
2018-02-17T08:53:40.645Z,96.40
2018-02-17T08:56:07.431Z,96.50
2018-02-17T08:58:33.940Z,96.30
2018-02-17T09:01:00.472Z,96.50
2018-02-17T09:03:27.075Z,96.40
2018-02-17T09:05:53.863Z,96.30
2018-02-17T09:08:20.287Z,96.00
2018-02-17T09:10:47.615Z,96.10
2018-02-17T09:13:14.228Z,96.00
2018-02-17T09:15:40.999Z,96.00
2018-02-17T09:18:07.708Z,95.90
2018-02-17T09:20:36.029Z,95.60
2018-02-17T09:23:02.800Z,95.70
2018-02-17T09:25:29.983Z,95.70
2018-02-17T09:27:58.352Z,95.70
2018-02-17T09:30:27.435Z,95.40
2018-02-17T09:32:54.091Z,95.40
2018-02-17T09:35:20.820Z,95.30
2018-02-17T09:37:48.224Z,95.20
2018-02-17T09:40:18.405Z,95.00
2018-02-17T09:42:45.094Z,95.00
2018-02-17T09:45:17.313Z,94.90
2018-02-17T09:47:44.088Z,94.90
2018-02-17T09:50:11.679Z,95.20
2018-02-17T09:52:38.396Z,94.50
2018-02-17T09:55:18.250Z,94.60
2018-02-17T09:57:47.277Z,94.10
2018-02-17T10:00:13.911Z,94.50
2018-02-17T10:02:40.550Z,94.10
2018-02-17T10:05:07.280Z,93.70
2018-02-17T10:07:33.988Z,94.10
2018-02-17T10:10:00.840Z,94.30
2018-02-17T10:12:28.624Z,93.70
2018-02-17T10:14:55.363Z,93.20
2018-02-17T10:17:21.962Z,92.00
2018-02-17T10:19:48.664Z,91.30
2018-02-17T10:22:15.504Z,90.70
2018-02-17T10:24:43.046Z,92.10
2018-02-17T10:27:09.706Z,91.30
2018-02-17T10:29:36.347Z,90.70
2018-02-17T10:32:03.049Z,91.40
2018-02-17T10:34:30.859Z,90.20
2018-02-17T10:36:58.290Z,90.80
2018-02-17T10:39:25.031Z,89.60
2018-02-17T10:41:51.883Z,87.20
2018-02-17T10:44:18.453Z,90.00
2018-02-17T10:46:45.800Z,89.60
2018-02-17T10:49:12.326Z,84.80
2018-02-17T10:51:38.821Z,84.30
2018-02-17T10:54:05.503Z,83.00
2018-02-17T10:56:33.165Z,79.90
2018-02-17T10:58:59.707Z,81.40
2018-02-17T11:01:26.572Z,79.70
2018-02-17T11:03:54.167Z,80.40
2018-02-17T11:06:21.016Z,78.40
2018-02-17T11:08:47.551Z,79.70
2018-02-17T11:11:15.010Z,75.40
2018-02-17T11:13:42.669Z,75.20
2018-02-17T11:16:18.500Z,77.00
2018-02-17T11:18:45.372Z,71.90
2018-02-17T11:21:12.014Z,69.30
2018-02-17T11:23:38.634Z,71.10
2018-02-17T11:26:05.262Z,61.50
2018-02-17T11:28:39.105Z,61.30
2018-02-17T11:31:06.462Z,66.30
2018-02-17T11:33:35.011Z,60.40
2018-02-17T11:36:07.226Z,60.50
2018-02-17T11:38:33.745Z,61.30
2018-02-17T11:41:00.606Z,59.90
2018-02-17T11:43:27.115Z,60.20
2018-02-17T11:45:53.831Z,62.90
2018-02-17T11:48:20.235Z,55.80
2018-02-17T11:50:49.029Z,55.00
2018-02-17T11:56:06.911Z,55.10
2018-02-17T11:58:33.443Z,55.80
2018-02-17T12:01:00.558Z,50.80
2018-02-17T12:03:36.375Z,48.20
2018-02-17T12:06:03.595Z,48.20
2018-02-17T12:08:29.774Z,46.20
2018-02-17T12:10:56.178Z,52.30
2018-02-17T12:13:22.493Z,45.00
2018-02-17T12:15:48.725Z,45.00
2018-02-17T12:18:14.919Z,46.40
2018-02-17T12:20:41.906Z,43.30
2018-02-17T12:23:08.035Z,45.20
2018-02-17T12:25:35.690Z,43.60
2018-02-17T12:28:01.912Z,43.80
2018-02-17T12:30:28.262Z,42.50
2018-02-17T12:32:54.587Z,43.50
2018-02-17T12:35:20.912Z,40.70
2018-02-17T12:37:47.131Z,41.00
2018-02-17T12:50:14.288Z,39.70
2018-02-17T12:52:47.539Z,41.40
2018-02-17T12:58:25.881Z,37.70
2018-02-17T13:00:52.951Z,36.10
2018-02-17T13:03:19.510Z,39.80
2018-02-17T13:05:49.240Z,34.90
2018-02-17T13:08:15.719Z,35.00
2018-02-17T13:10:42.881Z,38.90
2018-02-17T13:13:12.678Z,35.00
2018-02-17T13:15:39.493Z,32.20
2018-02-17T13:18:07.203Z,36.90
2018-02-17T13:20:35.144Z,36.20
2018-02-17T13:23:17.275Z,30.90
2018-02-17T13:25:44.500Z,31.00
2018-02-17T13:28:31.294Z,32.80
2018-02-17T13:30:57.726Z,36.50
2018-02-17T13:33:32.914Z,29.00
2018-02-17T13:35:59.341Z,27.20
2018-02-17T13:38:25.937Z,34.10
2018-02-17T13:40:52.909Z,30.00
2018-02-17T13:43:19.745Z,29.50
2018-02-17T13:45:47.202Z,33.80
2018-02-17T13:48:16.032Z,32.90
2018-02-17T13:56:51.383Z,28.60
2018-02-17T13:59:17.914Z,29.20
2018-02-17T14:01:47.655Z,28.50
2018-02-17T14:04:15.104Z,29.80
2018-02-17T14:06:42.808Z,27.80
2018-02-17T14:09:10.109Z,25.50
2018-02-17T14:11:46.936Z,28.70
2018-02-17T14:14:14.531Z,30.00
2018-02-17T14:16:41.349Z,24.70
2018-02-17T14:19:07.989Z,25.30
2018-02-17T14:21:35.270Z,26.90
2018-02-17T14:24:05.722Z,26.50
2018-02-17T14:32:20.723Z,26.00
2018-02-17T14:37:50.233Z,26.40
2018-02-17T14:40:17.828Z,28.30
2018-02-17T14:42:45.428Z,26.80
2018-02-17T14:48:22.938Z,24.40
2018-02-17T14:50:49.406Z,25.30
2018-02-17T14:53:15.931Z,27.40
2018-02-17T14:55:44.841Z,28.30
2018-02-17T14:58:12.513Z,28.30
2018-02-17T15:00:39.231Z,26.30
2018-02-17T15:03:05.841Z,26.60
2018-02-17T15:05:33.435Z,27.80
2018-02-17T15:08:00.422Z,24.70
2018-02-17T15:10:29.282Z,27.90
2018-02-17T15:12:57.254Z,26.10
2018-02-17T15:15:23.686Z,27.60
2018-02-17T15:17:50.728Z,29.80
2018-02-17T15:20:17.289Z,26.60
2018-02-17T15:22:44.288Z,26.90
2018-02-17T15:25:18.446Z,25.30
2018-02-17T15:27:47.050Z,25.90
2018-02-17T15:30:15.479Z,26.60
2018-02-17T15:32:42.998Z,28.20
2018-02-17T15:35:10.291Z,28.00
2018-02-17T15:37:42.360Z,28.40
2018-02-17T15:40:10.950Z,24.80
2018-02-17T15:42:37.394Z,27.30
2018-02-17T15:45:04.154Z,26.90
2018-02-17T15:50:16.392Z,26.30
2018-02-17T15:52:56.566Z,27.20
2018-02-17T15:55:24.118Z,28.10
2018-02-17T15:57:51.666Z,27.70
2018-02-17T16:06:40.528Z,28.50
2018-02-17T16:09:09.499Z,31.10
2018-02-17T16:14:49.039Z,29.70
2018-02-17T16:17:18.991Z,31.10
2018-02-17T16:19:56.191Z,32.10
2018-02-17T16:22:23.842Z,30.90
2018-02-17T16:24:50.474Z,30.50
2018-02-17T16:27:17.105Z,31.60
2018-02-17T16:29:49.815Z,31.10
2018-02-17T16:35:17.815Z,33.40
2018-02-17T16:37:59.586Z,33.70
2018-02-17T16:40:27.906Z,36.40
2018-02-17T16:43:02.139Z,33.10
2018-02-17T16:45:36.008Z,33.00
2018-02-17T16:48:04.760Z,33.00
2018-02-17T16:50:42.870Z,35.80
2018-02-17T16:53:12.720Z,33.90
2018-02-17T16:55:47.521Z,36.90
2018-02-17T16:58:23.072Z,35.80
2018-02-17T17:00:53.455Z,35.40
2018-02-17T17:09:50.293Z,36.20
2018-02-17T17:12:18.524Z,35.70
2018-02-17T17:14:47.435Z,36.30
2018-02-17T17:17:17.778Z,36.30
2018-02-17T17:19:46.400Z,35.80
2018-02-17T17:22:18.802Z,36.80
2018-02-17T17:24:47.809Z,38.20
2018-02-17T17:27:22.470Z,38.70
2018-02-17T17:41:53.889Z,44.60
2018-02-17T17:44:20.384Z,44.20
2018-02-17T17:46:46.950Z,45.00
2018-02-17T17:49:15.232Z,42.50
2018-02-17T17:51:42.090Z,43.50
2018-02-17T17:54:09.114Z,49.00
2018-02-17T17:59:16.960Z,46.10
2018-02-17T18:01:43.894Z,48.00
2018-02-17T18:04:12.118Z,44.00
2018-02-17T18:06:39.323Z,54.00
2018-02-17T18:09:05.903Z,46.80
2018-02-17T18:14:32.161Z,44.90
2018-02-17T18:16:58.968Z,47.70
2018-02-17T18:19:25.685Z,53.60
2018-02-17T18:24:54.327Z,53.40
2018-02-17T18:34:55.022Z,54.60
2018-02-17T18:37:21.915Z,55.50
2018-02-17T18:39:48.971Z,54.90
2018-02-17T18:42:23.839Z,61.70
2018-02-17T18:44:51.816Z,58.20
2018-02-17T18:47:18.603Z,62.40
2018-02-17T18:49:46.497Z,59.10
